Time;durP1;ratioP1;P1;durP2;ratioP2;P2;SDS_P1;SDS_P2;PMS_P1;PMS_P2;Temp;Humidity;BMP_temperature;BMP_pressure;BME280_temperature;BME280_humidity;BME280_pressure;Samples;Min_cycle;Max_cycle;Signal;HPM_P1;HPM_P2
2022/12/18 00:01:25;;;;;;;3.83;3.53;;;;;;;-0.25;70.19;102905.00;5101805;28;20036;-80
2022/12/18 00:03:52;;;;;;;0.40;0.40;;;;;;;-0.33;70.51;102901.94;5097419;28;20036;-80
2022/12/18 00:06:19;;;;;;;0.40;0.40;;;;;;;-0.34;70.12;102907.97;5097907;28;20028;-80
2022/12/18 00:08:45;;;;;;;0.20;0.20;;;;;;;-0.42;69.69;102902.31;5087556;28;20028;-80
2022/12/18 00:11:16;;;;;;;0.68;0.68;;;;;;;-0.39;69.95;102891.16;5095856;28;20020;-81
2022/12/18 00:13:43;;;;;;;0.20;0.20;;;;;;;-0.43;69.93;102878.78;5087792;28;20028;-81
2022/12/18 00:16:11;;;;;;;0.10;0.10;;;;;;;-0.50;70.06;102887.94;5088834;28;20031;-82
2022/12/18 00:18:38;;;;;;;0.20;0.20;;;;;;;-0.58;70.07;102889.22;5096091;28;20028;-79
2022/12/18 00:21:06;;;;;;;0.52;0.52;;;;;;;-0.63;70.23;102886.31;5096004;28;20047;-80
2022/12/18 00:23:34;;;;;;;0.20;0.20;;;;;;;-0.72;70.22;102894.50;5094316;28;20047;-80
2022/12/18 00:26:02;;;;;;;1.67;1.27;;;;;;;-0.77;70.33;102884.59;5100271;28;20024;-80
2022/12/18 00:28:28;;;;;;;0.20;0.20;;;;;;;-0.74;70.19;102901.28;5093686;28;20020;-80
2022/12/18 00:33:39;;;;;;;0.10;0.10;;;;;;;-0.73;70.09;102890.09;5088944;27;20424;-80
2022/12/18 00:38:47;;;;;;;0.20;0.20;;;;;;;-0.64;70.82;102886.25;5117355;27;1178186;-80
2022/12/18 00:42:55;;;;;;;0.40;0.40;;;;;;;-0.67;70.81;102890.44;5123011;28;20322;-80
2022/12/18 00:44:01;;;;;;;0.30;0.30;;;;;;;-0.68;70.11;102883.44;5100210;28;20044;-80
2022/12/18 00:46:27;;;;;;;0.20;0.20;;;;;;;-0.70;70.38;102890.28;5096051;28;20035;-80
2022/12/18 00:48:53;;;;;;;0.10;0.10;;;;;;;-0.71;70.19;102883.28;5094388;28;20040;-81
2022/12/18 00:51:20;;;;;;;0.82;0.82;;;;;;;-0.67;70.55;102889.56;5095386;28;20038;-81
2022/12/18 00:53:46;;;;;;;0.17;0.17;;;;;;;-0.70;70.57;102895.50;5112157;28;20032;-80
2022/12/18 00:56:12;;;;;;;0.20;0.20;;;;;;;-0.73;70.40;102900.50;5125472;28;20063;-80
2022/12/18 00:58:38;;;;;;;0.20;0.20;;;;;;;-0.74;70.15;102903.00;5104869;28;20055;-81
2022/12/18 01:01:05;;;;;;;0.40;0.40;;;;;;;-0.75;70.20;102902.09;5103962;28;20024;-81
2022/12/18 01:03:32;;;;;;;0.77;0.77;;;;;;;-0.76;70.53;102902.94;5095435;28;20514;-81
2022/12/18 01:05:58;;;;;;;1.27;1.27;;;;;;;-0.75;70.56;102896.88;5094975;28;20124;-81
2022/12/18 01:08:24;;;;;;;0.10;0.10;;;;;;;-0.73;70.67;102900.50;5100057;28;20049;-81
2022/12/18 01:10:50;;;;;;;0.55;0.55;;;;;;;-0.74;70.16;102896.09;5107979;28;20123;-81
2022/12/18 01:13:16;;;;;;;2.22;2.05;;;;;;;-0.78;70.56;102896.72;5099138;28;20028;-81
2022/12/18 01:15:49;;;;;;;3.10;2.83;;;;;;;-0.74;70.08;102903.91;5105676;28;20388;-81
2022/12/18 01:18:15;;;;;;;0.20;0.20;;;;;;;-0.74;70.25;102890.00;5100609;28;20038;-80
2022/12/18 01:20:41;;;;;;;0.20;0.20;;;;;;;-0.77;70.64;102897.59;5103822;28;20131;-81
2022/12/18 01:23:07;;;;;;;0.20;0.20;;;;;;;-0.83;70.59;102901.66;5111866;28;20021;-80
2022/12/18 01:25:36;;;;;;;0.30;0.30;;;;;;;-0.85;70.49;102910.16;5122635;28;20080;-80
2022/12/18 01:28:02;;;;;;;0.70;0.70;;;;;;;-0.80;70.62;102895.72;5113806;28;20046;-81
2022/12/18 01:30:28;;;;;;;0.20;0.20;;;;;;;-0.85;70.33;102894.56;5114004;28;20028;-81
2022/12/18 01:32:54;;;;;;;0.93;0.93;;;;;;;-0.86;69.87;102897.97;5100809;28;20028;-81
2022/12/18 01:35:21;;;;;;;0.20;0.20;;;;;;;-0.88;69.92;102904.78;5108064;28;20036;-81
2022/12/18 01:37:47;;;;;;;0.68;0.68;;;;;;;-0.86;69.87;102911.88;5104967;28;20029;-80
2022/12/18 01:40:13;;;;;;;0.20;0.20;;;;;;;-0.89;69.81;102914.28;5113970;28;20491;-80
2022/12/18 01:42:39;;;;;;;0.20;0.20;;;;;;;-0.94;69.71;102922.66;5110066;28;20035;-81
2022/12/18 01:47:49;;;;;;;0.20;0.20;;;;;;;-0.89;70.32;102918.59;5070218;28;20145;-80
2022/12/18 01:50:19;;;;;;;3.53;0.75;;;;;;;-0.92;70.12;102924.53;5073588;28;20101;-80
2022/12/18 01:52:56;;;;;;;0.30;0.30;;;;;;;-0.87;70.28;102915.28;5070929;28;20055;-80
2022/12/18 01:55:26;;;;;;;0.10;0.10;;;;;;;-0.93;69.60;102921.84;5072750;28;20067;-80
2022/12/18 01:57:56;;;;;;;2.53;1.33;;;;;;;-1.04;69.58;102926.38;5075333;28;20045;-80
2022/12/18 02:00:23;;;;;;;1.40;1.30;;;;;;;-1.02;70.20;102932.59;5074318;28;20131;-80
2022/12/18 02:02:49;;;;;;;0.30;0.30;;;;;;;-1.05;70.02;102933.28;5077844;28;20040;-80
2022/12/18 02:05:22;;;;;;;0.32;0.32;;;;;;;-1.00;69.83;102939.69;5073448;28;20028;-80
2022/12/18 02:08:16;;;;;;;0.20;0.20;;;;;;;-0.96;70.14;102937.25;5084983;28;20055;-80
2022/12/18 02:11:22;;;;;;;0.20;0.20;;;;;;;-0.89;69.76;102944.63;5083849;28;20045;-79
2022/12/18 02:16:59;;;;;;;0.20;0.20;;;;;;;-0.90;70.33;102933.31;5119951;27;20354;-80
2022/12/18 02:20:03;;;;;;;0.10;0.10;;;;;;;-0.87;70.50;102922.22;5115687;28;20039;-81
2022/12/18 02:22:42;;;;;;;0.20;0.20;;;;;;;-0.93;70.41;102927.03;5113315;28;20032;-80
2022/12/18 02:28:03;;;;;;;0.20;0.20;;;;;;;-1.00;70.39;102924.06;5122464;27;1180803;-80
2022/12/18 02:30:34;;;;;;;0.57;0.57;;;;;;;-1.01;70.16;102921.34;5127396;27;20657;-80
2022/12/18 02:33:03;;;;;;;0.47;0.47;;;;;;;-1.06;70.00;102918.50;5114590;28;20032;-80
2022/12/18 02:35:31;;;;;;;0.20;0.20;;;;;;;-1.08;69.99;102917.50;5114069;28;20039;-81
2022/12/18 02:37:58;;;;;;;0.40;0.40;;;;;;;-1.08;69.71;102925.28;5100102;28;20070;-81
2022/12/18 02:40:27;;;;;;;0.30;0.30;;;;;;;-1.08;69.91;102924.41;5103735;28;20530;-81
2022/12/18 02:42:53;;;;;;;2.28;2.15;;;;;;;-1.11;69.85;102919.88;5115408;28;20506;-81
2022/12/18 02:45:19;;;;;;;0.15;0.15;;;;;;;-1.14;69.57;102922.31;5100059;28;20023;-81
2022/12/18 02:47:49;;;;;;;0.20;0.20;;;;;;;-1.16;69.90;102913.50;5114630;28;20039;-80
2022/12/18 02:58:17;;;;;;;0.20;0.20;;;;;;;-1.23;69.83;102882.75;5114257;27;1200451;-79
2022/12/18 03:01:05;;;;;;;0.10;0.10;;;;;;;-1.23;69.48;102880.13;5127882;27;20402;-79
2022/12/18 03:03:39;;;;;;;0.20;0.20;;;;;;;-1.24;70.22;102878.34;5104625;28;20028;-79
2022/12/18 03:06:12;;;;;;;0.20;0.20;;;;;;;-1.28;69.63;102878.94;5104571;28;20032;-80
2022/12/18 03:08:44;;;;;;;0.20;0.20;;;;;;;-1.29;69.67;102871.97;5102307;28;20032;-79
2022/12/18 03:11:13;;;;;;;0.22;0.22;;;;;;;-1.35;69.69;102873.34;5100454;28;20040;-79
2022/12/18 03:16:27;;;;;;;0.30;0.30;;;;;;;-1.43;69.84;102865.88;5072537;28;20789;-79
2022/12/18 03:18:58;;;;;;;0.20;0.20;;;;;;;-1.56;69.23;102859.03;5078983;28;20134;-78
2022/12/18 03:21:33;;;;;;;0.20;0.20;;;;;;;-1.59;69.47;102854.53;5080682;28;20029;-79
2022/12/18 03:24:03;;;;;;;0.20;0.20;;;;;;;-1.63;69.76;102858.66;5077244;28;20036;-79
2022/12/18 03:26:31;;;;;;;0.20;0.20;;;;;;;-1.65;69.74;102861.97;5076108;28;20062;-79
2022/12/18 03:29:03;;;;;;;0.20;0.20;;;;;;;-1.66;69.72;102861.06;5083652;28;20020;-78
2022/12/18 03:31:31;;;;;;;0.47;0.47;;;;;;;-1.66;69.74;102853.28;5093314;28;20033;-78
2022/12/18 03:34:04;;;;;;;5.28;1.95;;;;;;;-1.68;69.80;102860.06;5071471;28;20033;-79
2022/12/18 03:36:31;;;;;;;0.52;0.52;;;;;;;-1.77;69.69;102862.06;5068951;28;20028;-79
2022/12/18 03:38:58;;;;;;;0.30;0.30;;;;;;;-1.74;69.91;102861.41;5071238;28;20800;-80
2022/12/18 03:41:51;;;;;;;0.20;0.20;;;;;;;-1.70;69.32;102860.78;5072472;28;20020;-81
2022/12/18 03:44:42;;;;;;;0.20;0.20;;;;;;;-1.72;69.58;102857.16;5059612;28;20051;-81
2022/12/18 03:47:15;;;;;;;0.22;0.22;;;;;;;-1.70;69.82;102855.59;5073935;28;20274;-81
2022/12/18 03:49:48;;;;;;;;;;;;;;;-1.61;69.69;102844.84;5068267;28;20021;-81
2022/12/18 03:52:25;;;;;;;;;;;;;;;-1.61;69.61;102837.06;5074304;28;19974;-81
2022/12/18 03:54:54;;;;;;;0.20;0.20;;;;;;;-1.73;69.72;102835.50;5073256;28;19924;-80
2022/12/18 03:57:25;;;;;;;0.30;0.30;;;;;;;-1.79;69.72;102833.41;5089843;28;20051;-79
2022/12/18 03:59:56;;;;;;;7.47;1.95;;;;;;;-1.79;70.11;102840.31;5087028;28;20036;-80
2022/12/18 04:02:24;;;;;;;0.20;0.20;;;;;;;-1.87;69.84;102847.63;5085867;28;20036;-80
2022/12/18 04:04:55;;;;;;;4.95;1.33;;;;;;;-1.98;69.36;102833.94;5092651;28;20025;-80
2022/12/18 04:07:23;;;;;;;0.20;0.20;;;;;;;-2.04;69.07;102833.56;5090147;28;20056;-79
2022/12/18 04:09:52;;;;;;;0.30;0.30;;;;;;;-2.13;68.63;102823.47;5081769;28;20024;-79
2022/12/18 04:12:18;;;;;;;0.38;0.38;;;;;;;-2.21;68.95;102834.16;5087235;28;20051;-79
2022/12/18 04:14:45;;;;;;;0.60;0.60;;;;;;;-2.28;68.54;102838.97;5089171;28;20054;-79
2022/12/18 04:17:11;;;;;;;0.10;0.10;;;;;;;-2.35;68.70;102835.88;5080400;28;20511;-80
2022/12/18 04:19:37;;;;;;;0.20;0.20;;;;;;;-2.42;68.93;102837.16;5066686;28;20039;-79
2022/12/18 04:22:03;;;;;;;0.20;0.20;;;;;;;-2.50;68.67;102841.84;5073763;28;20035;-80
2022/12/18 04:24:29;;;;;;;0.45;0.45;;;;;;;-2.56;68.58;102849.22;5078854;28;20029;-79
2022/12/18 04:26:55;;;;;;;0.20;0.20;;;;;;;-2.62;68.68;102847.16;5069980;28;20035;-79
2022/12/18 04:29:21;;;;;;;1.75;1.10;;;;;;;-2.69;68.59;102844.94;5055068;28;20036;-79
2022/12/18 04:31:47;;;;;;;2.58;1.08;;;;;;;-2.75;68.55;102844.53;5052117;28;20032;-80
2022/12/18 04:34:13;;;;;;;0.20;0.20;;;;;;;-2.79;68.56;102852.88;5056195;28;20052;-79
2022/12/18 04:36:39;;;;;;;0.20;0.20;;;;;;;-2.84;68.79;102855.19;5051748;28;20539;-79
2022/12/18 04:39:06;;;;;;;0.17;0.17;;;;;;;-2.88;68.63;102857.47;5054007;28;20043;-80
2022/12/18 04:41:32;;;;;;;0.20;0.20;;;;;;;-2.91;68.89;102863.34;5057160;28;20166;-79
2022/12/18 04:43:58;;;;;;;0.13;0.13;;;;;;;-2.93;69.04;102862.34;5059047;28;20017;-79
2022/12/18 04:46:24;;;;;;;1.45;1.30;;;;;;;-2.98;68.92;102867.22;5070106;28;20052;-79
2022/12/18 04:48:50;;;;;;;0.43;0.43;;;;;;;-2.99;69.03;102873.22;5077759;28;20019;-79
2022/12/18 04:51:16;;;;;;;0.20;0.20;;;;;;;-3.02;68.86;102878.16;5054630;28;20128;-80
2022/12/18 04:53:42;;;;;;;0.28;0.28;;;;;;;-3.04;69.04;102873.69;5056180;28;20048;-80
2022/12/18 04:56:13;;;;;;;0.30;0.30;;;;;;;-3.06;68.76;102873.56;5046492;28;20025;-79
2022/12/18 04:58:41;;;;;;;0.20;0.20;;;;;;;-3.09;68.35;102862.97;5056210;28;20101;-79
2022/12/18 05:01:07;;;;;;;0.10;0.10;;;;;;;-3.13;68.55;102855.78;5058716;28;20040;-79
2022/12/18 05:03:35;;;;;;;0.80;0.80;;;;;;;-3.15;68.26;102857.41;5059016;28;20510;-79
2022/12/18 05:06:01;;;;;;;0.20;0.20;;;;;;;-3.17;68.19;102854.69;5054557;28;20029;-79
2022/12/18 05:08:27;;;;;;;0.38;0.38;;;;;;;-3.19;68.32;102850.19;5056948;28;20040;-80
2022/12/18 05:11:03;;;;;;;0.20;0.20;;;;;;;-3.17;68.33;102856.38;5043558;28;20609;-79
2022/12/18 05:13:29;;;;;;;0.10;0.10;;;;;;;-3.23;68.36;102858.56;5049282;28;20025;-79
2022/12/18 05:15:56;;;;;;;0.77;0.77;;;;;;;-3.27;67.76;102862.63;5049594;28;20074;-80
2022/12/18 05:18:23;;;;;;;0.40;0.40;;;;;;;-3.30;68.15;102865.91;5051895;28;20120;-79
2022/12/18 05:20:51;;;;;;;0.43;0.43;;;;;;;-3.33;67.74;102868.28;5051138;28;20024;-79
2022/12/18 05:23:18;;;;;;;0.20;0.20;;;;;;;-3.37;68.02;102868.84;5056305;28;20092;-79
2022/12/18 05:25:52;;;;;;;1.02;1.02;;;;;;;-3.37;68.26;102866.28;5044948;28;20028;-79
2022/12/18 05:28:18;;;;;;;1.05;1.05;;;;;;;-3.45;67.27;102872.59;5055498;28;20108;-79
2022/12/18 05:30:50;;;;;;;0.28;0.28;;;;;;;-3.45;67.60;102862.22;5050292;28;20056;-80
2022/12/18 05:33:17;;;;;;;0.20;0.20;;;;;;;-3.51;67.24;102864.44;5057929;28;20035;-79
2022/12/18 05:35:43;;;;;;;0.30;0.30;;;;;;;-3.53;67.48;102863.41;5057576;28;20025;-79
2022/12/18 05:38:09;;;;;;;0.20;0.20;;;;;;;-3.58;67.96;102855.28;5060944;28;20091;-79
2022/12/18 05:40:36;;;;;;;0.20;0.20;;;;;;;-3.59;67.28;102859.59;5057645;28;20028;-79
2022/12/18 05:43:02;;;;;;;0.10;0.10;;;;;;;-3.61;67.15;102848.22;5057056;28;20420;-81
2022/12/18 05:45:28;;;;;;;0.20;0.20;;;;;;;-3.63;67.58;102842.00;5067208;28;20104;-81
2022/12/18 05:47:54;;;;;;;1.65;1.55;;;;;;;-3.65;67.57;102845.28;5058799;28;20090;-80
2022/12/18 05:50:20;;;;;;;0.40;0.40;;;;;;;-3.66;68.00;102846.09;5055688;28;20079;-80
2022/12/18 05:52:47;;;;;;;0.20;0.20;;;;;;;-3.70;68.06;102833.72;5052839;28;20048;-80
2022/12/18 05:55:13;;;;;;;0.10;0.10;;;;;;;-3.74;67.14;102836.09;5057503;28;20033;-80
2022/12/18 05:57:39;;;;;;;0.20;0.20;;;;;;;-3.76;67.80;102835.06;5047556;28;20067;-79
2022/12/18 06:00:06;;;;;;;0.20;0.20;;;;;;;-3.79;68.04;102836.53;5053174;28;20037;-79
2022/12/18 06:02:32;;;;;;;3.85;3.53;;;;;;;-3.78;67.58;102846.13;5050561;28;20107;-79
2022/12/18 06:04:58;;;;;;;0.20;0.20;;;;;;;-3.78;67.79;102851.31;5077913;28;20033;-79
2022/12/18 06:07:24;;;;;;;0.60;0.60;;;;;;;-3.78;68.24;102846.13;5072995;28;20041;-81
2022/12/18 06:09:50;;;;;;;0.20;0.20;;;;;;;-3.77;67.74;102846.22;5057528;28;20037;-80
2022/12/18 06:12:16;;;;;;;0.20;0.20;;;;;;;-3.77;68.54;102837.56;5055883;28;20044;-80
2022/12/18 06:14:42;;;;;;;1.30;1.27;;;;;;;-3.76;68.34;102829.91;5053809;28;20111;-80
2022/12/18 06:17:08;;;;;;;0.20;0.20;;;;;;;-3.79;68.26;102823.59;5052694;28;20040;-83
2022/12/18 06:19:34;;;;;;;0.20;0.20;;;;;;;-3.81;68.00;102830.38;5055301;28;20017;-81
2022/12/18 06:22:00;;;;;;;0.20;0.20;;;;;;;-3.84;68.08;102818.09;5054334;28;20039;-81
2022/12/18 06:24:27;;;;;;;0.10;0.10;;;;;;;-3.83;67.46;102816.41;5056629;28;20428;-81
2022/12/18 06:26:53;;;;;;;0.20;0.20;;;;;;;-3.88;67.43;102812.59;5054894;28;20025;-81
2022/12/18 06:29:19;;;;;;;0.40;0.40;;;;;;;-3.91;68.00;102816.75;5055345;28;20033;-81
2022/12/18 06:31:45;;;;;;;5.57;1.85;;;;;;;-3.95;67.19;102822.53;5051153;28;20385;-81
2022/12/18 06:34:11;;;;;;;1.95;1.85;;;;;;;-3.98;68.00;102817.09;5056131;28;20052;-81
2022/12/18 06:36:37;;;;;;;0.55;0.55;;;;;;;-4.00;67.08;102816.13;5055601;28;20461;-81
2022/12/18 06:39:03;;;;;;;0.50;0.50;;;;;;;-4.03;66.92;102822.75;5068143;28;20424;-81
2022/12/18 06:41:29;;;;;;;0.68;0.45;;;;;;;-4.05;67.73;102814.88;5066452;28;20029;-80
2022/12/18 06:43:57;;;;;;;0.20;0.20;;;;;;;-4.08;67.19;102804.31;5063293;28;20056;-81
2022/12/18 06:46:23;;;;;;;2.17;2.08;;;;;;;-4.07;66.82;102811.28;5055696;28;20029;-81
2022/12/18 06:48:50;;;;;;;0.20;0.20;;;;;;;-4.09;66.78;102807.69;5055122;28;20036;-81
2022/12/18 06:51:20;;;;;;;0.20;0.20;;;;;;;-4.10;66.85;102800.69;5043199;28;20029;-81
2022/12/18 06:53:46;;;;;;;0.20;0.20;;;;;;;-4.11;67.90;102798.88;5047218;28;20025;-81
2022/12/18 06:56:12;;;;;;;0.75;0.75;;;;;;;-4.12;67.41;102803.19;5053222;28;20044;-81
2022/12/18 06:58:39;;;;;;;0.95;0.95;;;;;;;-4.11;67.95;102788.53;5052634;28;20123;-81
2022/12/18 07:01:08;;;;;;;0.20;0.20;;;;;;;-4.10;67.86;102790.34;5045197;28;20477;-81
2022/12/18 07:03:34;;;;;;;0.65;0.65;;;;;;;-4.10;67.69;102795.50;5054632;28;20110;-81
2022/12/18 07:06:01;;;;;;;0.73;0.73;;;;;;;-4.09;67.36;102790.47;5051505;28;20017;-81
2022/12/18 07:08:28;;;;;;;0.40;0.40;;;;;;;-4.08;68.07;102776.72;5046805;28;20030;-81
2022/12/18 07:10:54;;;;;;;1.00;1.00;;;;;;;-4.06;67.39;102771.66;5046870;28;20535;-81
2022/12/18 07:13:20;;;;;;;0.30;0.30;;;;;;;-4.07;67.53;102770.75;5055990;28;20037;-81
2022/12/18 07:15:46;;;;;;;0.20;0.20;;;;;;;-4.06;67.74;102774.25;5052685;28;20029;-81
2022/12/18 07:18:12;;;;;;;0.60;0.60;;;;;;;-4.09;67.83;102764.59;5055208;28;20099;-81
2022/12/18 07:20:38;;;;;;;0.50;0.50;;;;;;;-4.09;67.42;102750.72;5056781;28;20101;-81
2022/12/18 07:23:05;;;;;;;0.20;0.20;;;;;;;-4.08;68.08;102747.34;5076659;28;20038;-81
2022/12/18 07:25:34;;;;;;;1.48;1.00;;;;;;;-4.05;67.95;102742.38;5066612;28;20540;-80
2022/12/18 07:28:01;;;;;;;0.20;0.20;;;;;;;-4.08;68.10;102742.16;5070549;28;20043;-80
2022/12/18 07:30:27;;;;;;;0.20;0.20;;;;;;;-4.03;68.64;102729.56;5063873;28;20072;-80
2022/12/18 07:32:53;;;;;;;0.30;0.30;;;;;;;-3.98;68.49;102723.00;5061027;28;20111;-81
2022/12/18 07:35:19;;;;;;;0.20;0.20;;;;;;;-3.94;67.89;102714.66;5056216;28;20570;-80
2022/12/18 07:37:45;;;;;;;1.05;1.05;;;;;;;-3.90;67.87;102702.03;5054409;28;20030;-81
2022/12/18 07:40:12;;;;;;;0.25;0.25;;;;;;;-3.90;67.98;102696.84;5051340;28;20021;-81
2022/12/18 07:42:41;;;;;;;0.73;0.73;;;;;;;-3.83;67.98;102694.69;5054068;28;20554;-81
2022/12/18 07:45:08;;;;;;;0.43;0.43;;;;;;;-3.85;68.10;102693.66;5050719;28;20021;-81
2022/12/18 07:47:36;;;;;;;0.75;0.75;;;;;;;-3.90;68.04;102702.03;5052396;28;20086;-81
2022/12/18 07:50:03;;;;;;;0.20;0.20;;;;;;;-3.84;68.52;102705.81;5052973;28;20032;-81
2022/12/18 07:52:29;;;;;;;4.13;1.60;;;;;;;-3.79;68.48;102714.81;5048454;28;20041;-81
2022/12/18 07:54:55;;;;;;;1.95;0.85;;;;;;;-3.77;68.20;102721.00;5046192;28;20026;-81
2022/12/18 07:57:22;;;;;;;0.17;0.17;;;;;;;-3.77;68.09;102718.41;5051026;28;20108;-81
2022/12/18 07:59:48;;;;;;;0.70;0.70;;;;;;;-3.77;68.12;102727.06;5045395;28;20029;-81
2022/12/18 08:02:14;;;;;;;0.10;0.10;;;;;;;-3.70;68.14;102720.63;5052153;28;20021;-81
2022/12/18 08:04:40;;;;;;;0.17;0.17;;;;;;;-3.70;67.63;102715.47;5050535;28;20025;-81
2022/12/18 08:07:06;;;;;;;0.10;0.10;;;;;;;-3.71;67.53;102715.31;5044342;28;20037;-81
2022/12/18 08:09:32;;;;;;;0.68;0.68;;;;;;;-3.66;67.98;102725.22;5045763;28;20146;-80
2022/12/18 08:11:59;;;;;;;0.20;0.20;;;;;;;-3.66;67.84;102730.41;5061497;28;20383;-80
2022/12/18 08:14:25;;;;;;;0.20;0.20;;;;;;;-3.63;68.23;102725.41;5057780;28;20025;-80
2022/12/18 08:16:51;;;;;;;0.20;0.20;;;;;;;-3.61;68.49;102715.19;5048904;28;20041;-80
2022/12/18 08:19:17;;;;;;;0.20;0.20;;;;;;;-3.59;67.72;102709.31;5054773;28;20094;-80
2022/12/18 08:21:43;;;;;;;0.20;0.20;;;;;;;-3.58;68.52;102700.75;5061972;28;20508;-80
2022/12/18 08:24:10;;;;;;;0.50;0.50;;;;;;;-3.55;67.92;102693.97;5043539;28;20026;-80
2022/12/18 08:26:37;;;;;;;0.20;0.20;;;;;;;-3.55;68.71;102693.97;5049909;28;20044;-81
2022/12/18 08:29:03;;;;;;;4.78;0.95;;;;;;;-3.52;68.72;102696.78;5044981;28;20048;-80
2022/12/18 08:31:30;;;;;;;2.15;2.05;;;;;;;-3.46;68.64;102699.78;5039793;28;20040;-80
2022/12/18 08:33:57;;;;;;;0.20;0.20;;;;;;;-3.48;68.37;102697.06;5040933;28;20034;-80
2022/12/18 08:36:24;;;;;;;0.20;0.20;;;;;;;-3.45;67.91;102696.38;5038865;28;20460;-81
2022/12/18 08:38:51;;;;;;;1.42;1.33;;;;;;;-3.37;68.32;102684.81;5048316;28;20032;-80
2022/12/18 08:41:18;;;;;;;0.55;0.55;;;;;;;-3.41;68.03;102696.69;5059504;28;20093;-80
2022/12/18 08:46:36;;;;;;;0.25;0.25;;;;;;;-3.23;68.83;102703.88;5042763;28;20029;-80
2022/12/18 08:49:02;;;;;;;0.57;0.57;;;;;;;-3.22;68.34;102710.88;5041238;28;20033;-80
2022/12/18 08:51:28;;;;;;;0.10;0.10;;;;;;;-3.22;68.51;102717.75;5041868;28;20037;-80
2022/12/18 08:53:54;;;;;;;1.75;1.65;;;;;;;-3.18;68.60;102727.53;5042211;28;20085;-80
2022/12/18 08:56:21;;;;;;;0.20;0.20;;;;;;;-3.13;68.44;102736.50;5042069;28;20034;-81
2022/12/18 08:58:47;;;;;;;4.90;1.55;;;;;;;-3.09;68.05;102743.69;5047197;28;20037;-78
2022/12/18 09:01:13;;;;;;;0.10;0.10;;;;;;;-3.04;68.03;102737.16;5058693;28;20065;-80
2022/12/18 09:03:40;;;;;;;0.20;0.20;;;;;;;-2.96;68.49;102742.81;5050116;28;20033;-80
2022/12/18 09:06:07;;;;;;;1.40;1.40;;;;;;;-2.91;68.13;102738.84;5043539;28;20032;-81
2022/12/18 09:08:33;;;;;;;0.20;0.20;;;;;;;-2.83;68.34;102745.44;5043832;28;20044;-81
2022/12/18 09:10:59;;;;;;;0.20;0.20;;;;;;;-2.77;68.29;102735.47;5041917;28;20026;-81
2022/12/18 09:13:26;;;;;;;0.40;0.40;;;;;;;-2.71;67.99;102727.16;5044097;28;20495;-81
2022/12/18 09:15:54;;;;;;;1.30;1.30;;;;;;;-2.67;68.08;102713.56;5037104;28;20424;-82
2022/12/18 09:18:22;;;;;;;0.88;0.82;;;;;;;-2.57;68.19;102716.78;5042366;28;20029;-81
2022/12/18 09:20:51;;;;;;;0.95;0.95;;;;;;;-2.54;67.97;102714.38;5038990;28;20029;-80
2022/12/18 09:23:17;;;;;;;0.20;0.20;;;;;;;-2.48;68.00;102710.47;5043291;28;20040;-80
2022/12/18 09:25:44;;;;;;;0.43;0.43;;;;;;;-2.43;67.74;102700.38;5041158;28;20029;-80
2022/12/18 09:28:13;;;;;;;6.88;3.40;;;;;;;-2.35;68.02;102693.09;5040102;28;20516;-81
2022/12/18 09:30:42;;;;;;;0.30;0.30;;;;;;;-2.33;67.74;102694.06;5035068;28;20040;-82
2022/12/18 09:33:09;;;;;;;2.25;2.15;;;;;;;-2.26;67.82;102685.84;5039300;28;20044;-79
2022/12/18 09:35:44;;;;;;;0.15;0.15;;;;;;;-2.18;67.75;102678.53;5042025;28;20061;-80
2022/12/18 09:38:16;;;;;;;0.20;0.20;;;;;;;-2.12;68.04;102686.72;5040933;28;20516;-79
2022/12/18 09:40:44;;;;;;;;;;;;;;;-1.99;67.75;102686.66;5039804;28;20068;-79
2022/12/18 09:43:24;;;;;;;0.10;0.10;;;;;;;-2.01;67.76;102677.00;5042257;28;20388;-80
2022/12/18 09:45:57;;;;;;;0.32;0.32;;;;;;;-2.00;67.90;102689.19;5038167;28;20018;-80
2022/12/18 09:48:30;;;;;;;0.40;0.40;;;;;;;-1.88;67.87;102689.94;5038428;28;20029;-82
2022/12/18 09:51:03;;;;;;;0.25;0.25;;;;;;;-1.77;67.82;102690.56;5040597;28;20036;-80
2022/12/18 09:53:35;;;;;;;0.30;0.30;;;;;;;-1.73;67.91;102686.44;5039711;28;20033;-80
2022/12/18 09:56:03;;;;;;;0.55;0.55;;;;;;;-1.65;67.95;102699.09;5052865;28;20052;-80
2022/12/18 10:01:18;;;;;;;0.83;0.83;;;;;;;-1.53;67.37;102701.53;5049191;27;1183334;-79
2022/12/18 10:03:44;;;;;;;0.90;0.90;;;;;;;-1.48;67.50;102691.44;5060031;28;20279;-79
2022/12/18 10:06:35;;;;;;;0.20;0.20;;;;;;;-1.41;67.22;102688.34;5026916;28;20117;-81
2022/12/18 10:09:18;;;;;;;0.20;0.20;;;;;;;-1.35;67.19;102678.31;5043971;28;20029;-80
2022/12/18 10:14:57;;;;;;;1.15;1.15;;;;;;;-1.31;67.08;102659.50;5082529;27;20410;-78
2022/12/18 10:17:49;;;;;;;0.10;0.10;;;;;;;-1.17;66.99;102667.22;5069393;28;20132;-79
2022/12/18 10:20:24;;;;;;;0.25;0.25;;;;;;;-1.18;66.94;102655.00;5070477;28;20267;-80
2022/12/18 10:23:17;;;;;;;0.20;0.20;;;;;;;-1.14;66.61;102641.38;5071398;28;20028;-79
2022/12/18 10:26:01;;;;;;;0.22;0.22;;;;;;;-1.03;67.08;102634.19;5076169;28;20028;-80
2022/12/18 10:28:31;;;;;;;1.65;1.65;;;;;;;-1.04;66.66;102634.97;5084666;28;20082;-79
2022/12/18 10:30:58;;;;;;;0.10;0.10;;;;;;;-1.00;66.85;102639.53;5077301;28;20526;-80
2022/12/18 10:33:28;;;;;;;0.20;0.20;;;;;;;-0.93;67.29;102630.41;5097302;28;20029;-80
2022/12/18 10:35:55;;;;;;;0.20;0.20;;;;;;;-0.92;66.86;102625.25;5080127;28;20091;-80
2022/12/18 10:38:25;;;;;;;0.80;0.80;;;;;;;-0.87;66.92;102620.31;5077999;28;20071;-80
2022/12/18 10:41:02;;;;;;;0.20;0.20;;;;;;;-0.83;66.55;102619.69;5072299;28;20055;-81
2022/12/18 10:43:31;;;;;;;0.75;0.75;;;;;;;-0.84;66.61;102616.16;5080113;28;20024;-81
2022/12/18 10:46:19;;;;;;;1.08;1.08;;;;;;;-0.68;66.61;102623.09;5072742;28;20063;-81
2022/12/18 10:51:33;;;;;;;0.10;0.10;;;;;;;-0.60;66.79;102609.63;5096063;27;20400;-80
2022/12/18 10:56:39;;;;;;;0.20;0.20;;;;;;;-0.55;66.58;102626.38;5119677;27;20389;-79
2022/12/18 10:59:08;;;;;;;1.20;1.20;;;;;;;-0.51;66.42;102630.97;5116647;27;20502;-81
2022/12/18 11:04:51;;;;;;;0.30;0.30;;;;;;;-0.33;66.66;102620.63;5049743;28;20412;-80
2022/12/18 11:07:17;;;;;;;0.20;0.20;;;;;;;-0.34;66.79;102621.44;5050814;28;20083;-80
2022/12/18 11:09:43;;;;;;;0.20;0.20;;;;;;;-0.26;66.39;102622.75;5048588;28;20052;-81
2022/12/18 11:12:19;;;;;;;0.20;0.20;;;;;;;-0.17;65.87;102612.81;5051594;28;20029;-80
2022/12/18 11:14:50;;;;;;;0.28;0.28;;;;;;;-0.19;65.58;102604.03;5068234;28;20014;-81
2022/12/18 11:17:22;;;;;;;0.13;0.13;;;;;;;-0.11;65.74;102600.91;5069457;28;20038;-81
2022/12/18 11:19:58;;;;;;;0.20;0.20;;;;;;;-0.07;66.01;102602.88;5052435;28;20025;-81
2022/12/18 11:22:29;;;;;;;0.25;0.25;;;;;;;-0.07;65.67;102603.75;5056130;28;20010;-81
2022/12/18 11:25:17;;;;;;;0.95;0.95;;;;;;;0.00;65.78;102605.00;5059248;28;20013;-81
2022/12/18 11:27:50;;;;;;;0.20;0.20;;;;;;;0.03;65.75;102610.34;5060053;28;20022;-82
2022/12/18 11:30:30;;;;;;;0.10;0.10;;;;;;;0.06;65.94;102599.19;5057550;28;20032;-82
2022/12/18 11:33:20;;;;;;;0.20;0.20;;;;;;;0.06;65.87;102588.75;5061016;28;20101;-82
2022/12/18 11:35:52;;;;;;;0.10;0.10;;;;;;;0.10;65.58;102588.09;5063765;28;20040;-82
2022/12/18 11:38:25;;;;;;;0.90;0.90;;;;;;;0.16;66.15;102585.81;5057959;28;20044;-81
2022/12/18 11:43:48;;;;;;;0.20;0.20;;;;;;;0.19;65.52;102577.25;5110062;27;20359;-79
2022/12/18 11:46:23;;;;;;;0.85;0.85;;;;;;;0.25;65.85;102570.66;5090080;28;20642;-79
2022/12/18 11:48:58;;;;;;;0.10;0.10;;;;;;;0.26;65.61;102556.81;5094286;28;20057;-80
2022/12/18 11:51:38;;;;;;;0.10;0.10;;;;;;;0.28;65.49;102544.72;5093095;28;20027;-78
2022/12/18 11:54:14;;;;;;;0.50;0.50;;;;;;;0.35;65.37;102534.59;5090746;28;20044;-82
2022/12/18 11:56:53;;;;;;;0.10;0.10;;;;;;;0.39;65.46;102526.13;5091144;28;20036;-81
2022/12/18 12:07:52;;;;;;;0.20;0.20;;;;;;;0.45;65.60;102516.00;5111427;27;20398;-82
2022/12/18 12:13:33;;;;;;;0.10;0.10;;;;;;;0.48;65.41;102500.47;5055372;28;20740;-80
2022/12/18 12:16:33;;;;;;;0.10;0.10;;;;;;;0.54;65.24;102490.34;5057258;28;20035;-82
2022/12/18 12:22:16;;;;;;;0.30;0.30;;;;;;;0.50;64.82;102472.75;5124755;27;20395;-80
2022/12/18 12:24:57;;;;;;;0.20;0.20;;;;;;;0.51;64.74;102476.25;5111864;27;20046;-80
2022/12/18 12:33:24;;;;;;;0.22;0.22;;;;;;;0.68;65.07;102466.63;5103163;27;20426;-85
2022/12/18 12:38:42;;;;;;;0.20;0.20;;;;;;;0.70;65.05;102464.97;5065498;28;20422;-80
2022/12/18 12:43:12;;;;;;;0.20;0.20;;;;;;;0.71;64.98;102466.75;5064373;28;20052;-81
2022/12/18 12:44:04;;;;;;;0.10;0.10;;;;;;;0.73;64.90;102467.72;5057594;28;20051;-81
2022/12/18 12:46:36;;;;;;;0.20;0.20;;;;;;;0.72;64.63;102464.22;5055839;28;20395;-81